sensor_id;sensor_type;location;lat;lon;timestamp;temperature;humidity
52295;DHT22;38243;53.212;6.574;2023-05-21T00:01:50;21.20;75.10
52295;DHT22;38243;53.212;6.574;2023-05-21T00:04:15;21.30;75.40
52295;DHT22;38243;53.212;6.574;2023-05-21T00:06:42;21.30;75.70
52295;DHT22;38243;53.212;6.574;2023-05-21T00:09:07;21.20;75.40
52295;DHT22;38243;53.212;6.574;2023-05-21T00:11:33;21.30;75.40
52295;DHT22;38243;53.212;6.574;2023-05-21T00:13:59;21.20;75.40
52295;DHT22;38243;53.212;6.574;2023-05-21T00:16:25;21.20;75.50
52295;DHT22;38243;53.212;6.574;2023-05-21T00:18:50;21.20;75.50
52295;DHT22;38243;53.212;6.574;2023-05-21T00:21:18;21.20;75.60
52295;DHT22;38243;53.212;6.574;2023-05-21T00:23:48;21.20;75.90
52295;DHT22;38243;53.212;6.574;2023-05-21T00:26:14;21.20;75.60
52295;DHT22;38243;53.212;6.574;2023-05-21T00:28:40;21.20;75.60
52295;DHT22;38243;53.212;6.574;2023-05-21T00:31:06;21.20;75.70
52295;DHT22;38243;53.212;6.574;2023-05-21T00:33:31;21.20;75.80
52295;DHT22;38243;53.212;6.574;2023-05-21T00:35:58;21.20;75.80
52295;DHT22;38243;53.212;6.574;2023-05-21T00:38:24;21.20;75.90
52295;DHT22;38243;53.212;6.574;2023-05-21T00:40:52;21.30;76.00
52295;DHT22;38243;53.212;6.574;2023-05-21T00:43:18;21.30;75.60
52295;DHT22;38243;53.212;6.574;2023-05-21T00:45:43;21.30;75.60
52295;DHT22;38243;53.212;6.574;2023-05-21T00:48:12;21.30;75.70
52295;DHT22;38243;53.212;6.574;2023-05-21T00:50:38;21.20;75.50
52295;DHT22;38243;53.212;6.574;2023-05-21T00:53:05;21.20;75.50
52295;DHT22;38243;53.212;6.574;2023-05-21T00:55:37;21.20;75.60
52295;DHT22;38243;53.212;6.574;2023-05-21T00:58:04;21.10;75.60
52295;DHT22;38243;53.212;6.574;2023-05-21T01:00:34;21.20;75.90
52295;DHT22;38243;53.212;6.574;2023-05-21T01:03:00;21.20;75.70
52295;DHT22;38243;53.212;6.574;2023-05-21T01:05:29;21.20;75.60
52295;DHT22;38243;53.212;6.574;2023-05-21T01:07:56;21.30;75.80
52295;DHT22;38243;53.212;6.574;2023-05-21T01:10:24;21.30;75.80
52295;DHT22;38243;53.212;6.574;2023-05-21T01:12:50;21.30;75.40
52295;DHT22;38243;53.212;6.574;2023-05-21T01:15:17;21.30;75.60
52295;DHT22;38243;53.212;6.574;2023-05-21T01:17:43;21.20;75.50
52295;DHT22;38243;53.212;6.574;2023-05-21T01:20:15;21.20;75.50
52295;DHT22;38243;53.212;6.574;2023-05-21T01:22:51;21.30;75.60
52295;DHT22;38243;53.212;6.574;2023-05-21T01:25:17;21.10;75.40
52295;DHT22;38243;53.212;6.574;2023-05-21T01:27:43;21.20;75.40
52295;DHT22;38243;53.212;6.574;2023-05-21T01:30:09;21.20;75.50
52295;DHT22;38243;53.212;6.574;2023-05-21T01:32:48;21.10;75.50
52295;DHT22;38243;53.212;6.574;2023-05-21T01:35:25;21.10;75.60
52295;DHT22;38243;53.212;6.574;2023-05-21T01:38:08;21.10;75.80
52295;DHT22;38243;53.212;6.574;2023-05-21T01:40:55;21.20;75.80
52295;DHT22;38243;53.212;6.574;2023-05-21T01:43:32;21.10;75.60
52295;DHT22;38243;53.212;6.574;2023-05-21T01:45:59;21.10;75.90
52295;DHT22;38243;53.212;6.574;2023-05-21T01:48:29;21.10;75.90
52295;DHT22;38243;53.212;6.574;2023-05-21T01:51:02;21.10;76.00
52295;DHT22;38243;53.212;6.574;2023-05-21T01:53:28;21.00;75.90
52295;DHT22;38243;53.212;6.574;2023-05-21T01:55:54;21.00;75.90
52295;DHT22;38243;53.212;6.574;2023-05-21T01:58:20;20.90;76.10
52295;DHT22;38243;53.212;6.574;2023-05-21T02:00:47;21.00;76.30
52295;DHT22;38243;53.212;6.574;2023-05-21T02:03:16;20.90;76.10
52295;DHT22;38243;53.212;6.574;2023-05-21T02:05:42;20.90;76.20
52295;DHT22;38243;53.212;6.574;2023-05-21T02:08:08;20.90;76.30
52295;DHT22;38243;53.212;6.574;2023-05-21T02:10:34;20.80;76.30
52295;DHT22;38243;53.212;6.574;2023-05-21T02:13:01;20.90;76.40
52295;DHT22;38243;53.212;6.574;2023-05-21T02:15:26;20.80;76.30
52295;DHT22;38243;53.212;6.574;2023-05-21T02:17:52;20.80;76.40
52295;DHT22;38243;53.212;6.574;2023-05-21T02:20:18;20.80;76.40
52295;DHT22;38243;53.212;6.574;2023-05-21T02:22:45;20.90;76.40
52295;DHT22;38243;53.212;6.574;2023-05-21T02:25:13;20.90;76.40
52295;DHT22;38243;53.212;6.574;2023-05-21T02:27:40;20.90;76.50
52295;DHT22;38243;53.212;6.574;2023-05-21T02:30:11;20.90;76.30
52295;DHT22;38243;53.212;6.574;2023-05-21T02:32:36;20.90;76.40
52295;DHT22;38243;53.212;6.574;2023-05-21T02:35:04;20.80;76.30
52295;DHT22;38243;53.212;6.574;2023-05-21T02:37:32;20.80;76.50
52295;DHT22;38243;53.212;6.574;2023-05-21T02:39:59;20.80;76.40
52295;DHT22;38243;53.212;6.574;2023-05-21T02:42:25;20.80;76.40
52295;DHT22;38243;53.212;6.574;2023-05-21T02:44:51;20.80;76.30
52295;DHT22;38243;53.212;6.574;2023-05-21T02:47:18;20.80;76.50
52295;DHT22;38243;53.212;6.574;2023-05-21T02:49:44;20.80;76.40
52295;DHT22;38243;53.212;6.574;2023-05-21T02:52:10;20.80;76.50
52295;DHT22;38243;53.212;6.574;2023-05-21T02:54:35;20.80;76.50
52295;DHT22;38243;53.212;6.574;2023-05-21T02:57:01;20.80;76.50
52295;DHT22;38243;53.212;6.574;2023-05-21T02:59:27;20.80;76.50
52295;DHT22;38243;53.212;6.574;2023-05-21T03:01:53;20.80;76.50
52295;DHT22;38243;53.212;6.574;2023-05-21T03:04:18;20.70;76.40
52295;DHT22;38243;53.212;6.574;2023-05-21T03:06:48;20.70;76.50
52295;DHT22;38243;53.212;6.574;2023-05-21T03:09:16;20.70;76.70
52295;DHT22;38243;53.212;6.574;2023-05-21T03:11:42;20.70;76.70
52295;DHT22;38243;53.212;6.574;2023-05-21T03:14:08;20.70;76.50
52295;DHT22;38243;53.212;6.574;2023-05-21T03:16:34;20.60;76.50
52295;DHT22;38243;53.212;6.574;2023-05-21T03:19:00;20.70;76.80
52295;DHT22;38243;53.212;6.574;2023-05-21T03:21:26;20.70;76.70
52295;DHT22;38243;53.212;6.574;2023-05-21T03:23:54;20.70;76.60
52295;DHT22;38243;53.212;6.574;2023-05-21T03:26:24;20.70;76.60
52295;DHT22;38243;53.212;6.574;2023-05-21T03:28:52;20.70;76.60
52295;DHT22;38243;53.212;6.574;2023-05-21T03:31:18;20.70;76.70
52295;DHT22;38243;53.212;6.574;2023-05-21T03:33:44;20.70;76.70
52295;DHT22;38243;53.212;6.574;2023-05-21T03:36:10;20.70;76.60
52295;DHT22;38243;53.212;6.574;2023-05-21T03:38:35;20.60;76.50
52295;DHT22;38243;53.212;6.574;2023-05-21T03:41:01;20.60;76.60
52295;DHT22;38243;53.212;6.574;2023-05-21T03:43:27;20.60;76.70
52295;DHT22;38243;53.212;6.574;2023-05-21T03:45:53;20.60;76.50
52295;DHT22;38243;53.212;6.574;2023-05-21T03:48:19;20.60;76.60
52295;DHT22;38243;53.212;6.574;2023-05-21T03:50:45;20.60;76.70
52295;DHT22;38243;53.212;6.574;2023-05-21T03:53:10;20.60;76.70
52295;DHT22;38243;53.212;6.574;2023-05-21T03:55:37;20.60;76.70
52295;DHT22;38243;53.212;6.574;2023-05-21T03:58:03;20.50;76.70
52295;DHT22;38243;53.212;6.574;2023-05-21T04:00:28;20.50;76.70
52295;DHT22;38243;53.212;6.574;2023-05-21T04:02:54;20.50;76.80
52295;DHT22;38243;53.212;6.574;2023-05-21T04:05:20;20.50;76.80
52295;DHT22;38243;53.212;6.574;2023-05-21T04:07:45;20.50;76.80
52295;DHT22;38243;53.212;6.574;2023-05-21T04:10:11;20.60;76.90
52295;DHT22;38243;53.212;6.574;2023-05-21T04:12:37;20.50;76.70
52295;DHT22;38243;53.212;6.574;2023-05-21T04:15:03;20.60;76.90
52295;DHT22;38243;53.212;6.574;2023-05-21T04:17:29;20.50;76.80
52295;DHT22;38243;53.212;6.574;2023-05-21T04:19:55;20.60;76.80
52295;DHT22;38243;53.212;6.574;2023-05-21T04:22:20;20.60;76.80
52295;DHT22;38243;53.212;6.574;2023-05-21T04:24:48;20.50;76.70
52295;DHT22;38243;53.212;6.574;2023-05-21T04:27:14;20.50;76.70
52295;DHT22;38243;53.212;6.574;2023-05-21T04:29:41;20.50;76.70
52295;DHT22;38243;53.212;6.574;2023-05-21T04:32:07;20.50;76.90
52295;DHT22;38243;53.212;6.574;2023-05-21T04:34:33;20.50;76.90
52295;DHT22;38243;53.212;6.574;2023-05-21T04:36:59;20.50;76.70
52295;DHT22;38243;53.212;6.574;2023-05-21T04:39:26;20.50;76.90
52295;DHT22;38243;53.212;6.574;2023-05-21T04:41:53;20.50;76.80
52295;DHT22;38243;53.212;6.574;2023-05-21T04:44:21;20.50;76.90
52295;DHT22;38243;53.212;6.574;2023-05-21T04:46:46;20.50;76.90
52295;DHT22;38243;53.212;6.574;2023-05-21T04:49:13;20.50;77.00
52295;DHT22;38243;53.212;6.574;2023-05-21T04:51:39;20.50;76.90
52295;DHT22;38243;53.212;6.574;2023-05-21T04:54:06;20.50;76.90
52295;DHT22;38243;53.212;6.574;2023-05-21T04:56:32;20.50;76.90
52295;DHT22;38243;53.212;6.574;2023-05-21T04:58:58;20.50;76.90
52295;DHT22;38243;53.212;6.574;2023-05-21T05:01:24;20.50;77.50
52295;DHT22;38243;53.212;6.574;2023-05-21T05:03:52;20.50;76.90
52295;DHT22;38243;53.212;6.574;2023-05-21T05:06:17;20.50;76.80
52295;DHT22;38243;53.212;6.574;2023-05-21T05:08:43;20.50;76.80
52295;DHT22;38243;53.212;6.574;2023-05-21T05:11:11;20.50;76.80
52295;DHT22;38243;53.212;6.574;2023-05-21T05:13:38;20.50;76.90
52295;DHT22;38243;53.212;6.574;2023-05-21T05:16:05;20.50;76.90
52295;DHT22;38243;53.212;6.574;2023-05-21T05:18:31;20.50;77.00
52295;DHT22;38243;53.212;6.574;2023-05-21T05:20:58;20.50;76.80
52295;DHT22;38243;53.212;6.574;2023-05-21T05:23:24;20.50;76.90
52295;DHT22;38243;53.212;6.574;2023-05-21T05:25:50;20.50;76.90
52295;DHT22;38243;53.212;6.574;2023-05-21T05:28:16;20.50;76.80
52295;DHT22;38243;53.212;6.574;2023-05-21T05:30:42;20.50;76.90
52295;DHT22;38243;53.212;6.574;2023-05-21T05:33:07;20.60;76.90
52295;DHT22;38243;53.212;6.574;2023-05-21T05:35:35;20.60;76.90
52295;DHT22;38243;53.212;6.574;2023-05-21T05:38:00;20.60;76.80
52295;DHT22;38243;53.212;6.574;2023-05-21T05:40:26;20.60;76.80
52295;DHT22;38243;53.212;6.574;2023-05-21T05:42:52;20.60;76.80
52295;DHT22;38243;53.212;6.574;2023-05-21T05:45:18;20.60;76.80
52295;DHT22;38243;53.212;6.574;2023-05-21T05:47:44;20.60;76.70
52295;DHT22;38243;53.212;6.574;2023-05-21T05:50:10;20.60;76.70
52295;DHT22;38243;53.212;6.574;2023-05-21T05:52:36;20.70;76.70
52295;DHT22;38243;53.212;6.574;2023-05-21T05:55:02;20.70;76.60
52295;DHT22;38243;53.212;6.574;2023-05-21T05:57:28;20.70;76.60
52295;DHT22;38243;53.212;6.574;2023-05-21T05:59:53;20.70;76.50
52295;DHT22;38243;53.212;6.574;2023-05-21T06:02:19;20.80;76.50
52295;DHT22;38243;53.212;6.574;2023-05-21T06:04:45;20.80;76.40
52295;DHT22;38243;53.212;6.574;2023-05-21T06:07:10;20.70;76.30
52295;DHT22;38243;53.212;6.574;2023-05-21T06:09:36;20.70;76.30
52295;DHT22;38243;53.212;6.574;2023-05-21T06:12:07;20.80;76.50
52295;DHT22;38243;53.212;6.574;2023-05-21T06:14:32;20.80;76.50
52295;DHT22;38243;53.212;6.574;2023-05-21T06:16:58;20.70;76.40
52295;DHT22;38243;53.212;6.574;2023-05-21T06:19:24;20.90;76.50
52295;DHT22;38243;53.212;6.574;2023-05-21T06:21:49;20.90;76.50
52295;DHT22;38243;53.212;6.574;2023-05-21T06:24:15;21.00;76.50
52295;DHT22;38243;53.212;6.574;2023-05-21T06:26:41;20.90;76.10
52295;DHT22;38243;53.212;6.574;2023-05-21T06:29:07;20.90;76.00
52295;DHT22;38243;53.212;6.574;2023-05-21T06:31:33;21.00;76.10
52295;DHT22;38243;53.212;6.574;2023-05-21T06:33:59;21.00;76.10
52295;DHT22;38243;53.212;6.574;2023-05-21T06:36:25;21.00;76.60
52295;DHT22;38243;53.212;6.574;2023-05-21T06:38:57;21.00;76.10
52295;DHT22;38243;53.212;6.574;2023-05-21T06:41:22;21.00;76.20
52295;DHT22;38243;53.212;6.574;2023-05-21T06:43:48;21.00;76.30
52295;DHT22;38243;53.212;6.574;2023-05-21T06:46:14;21.00;76.30
52295;DHT22;38243;53.212;6.574;2023-05-21T06:48:40;21.10;76.40
52295;DHT22;38243;53.212;6.574;2023-05-21T06:51:06;21.10;76.30
52295;DHT22;38243;53.212;6.574;2023-05-21T06:53:31;21.10;76.50
52295;DHT22;38243;53.212;6.574;2023-05-21T06:55:57;21.10;76.40
52295;DHT22;38243;53.212;6.574;2023-05-21T06:58:23;21.10;76.30
52295;DHT22;38243;53.212;6.574;2023-05-21T07:00:48;21.20;76.30
52295;DHT22;38243;53.212;6.574;2023-05-21T07:03:14;21.20;76.10
52295;DHT22;38243;53.212;6.574;2023-05-21T07:05:40;21.20;76.00
52295;DHT22;38243;53.212;6.574;2023-05-21T07:08:06;21.20;75.90
52295;DHT22;38243;53.212;6.574;2023-05-21T07:10:32;21.20;76.00
52295;DHT22;38243;53.212;6.574;2023-05-21T07:12:57;21.30;76.00
52295;DHT22;38243;53.212;6.574;2023-05-21T07:15:23;21.30;75.90
52295;DHT22;38243;53.212;6.574;2023-05-21T07:17:49;21.30;75.80
52295;DHT22;38243;53.212;6.574;2023-05-21T07:20:14;21.30;75.90
52295;DHT22;38243;53.212;6.574;2023-05-21T07:22:40;21.30;75.80
52295;DHT22;38243;53.212;6.574;2023-05-21T07:25:08;21.30;75.70
52295;DHT22;38243;53.212;6.574;2023-05-21T07:27:34;21.40;75.60
52295;DHT22;38243;53.212;6.574;2023-05-21T07:30:00;21.40;75.40
52295;DHT22;38243;53.212;6.574;2023-05-21T07:32:25;21.40;75.40
52295;DHT22;38243;53.212;6.574;2023-05-21T07:34:53;21.40;75.40
52295;DHT22;38243;53.212;6.574;2023-05-21T07:37:20;21.40;75.50
52295;DHT22;38243;53.212;6.574;2023-05-21T07:39:45;21.40;75.50
52295;DHT22;38243;53.212;6.574;2023-05-21T07:42:11;21.40;75.40
52295;DHT22;38243;53.212;6.574;2023-05-21T07:44:37;21.40;75.30
52295;DHT22;38243;53.212;6.574;2023-05-21T07:47:03;21.40;75.30
52295;DHT22;38243;53.212;6.574;2023-05-21T07:49:29;21.50;75.30
52295;DHT22;38243;53.212;6.574;2023-05-21T07:51:55;21.50;75.20
52295;DHT22;38243;53.212;6.574;2023-05-21T07:54:21;21.50;75.10
52295;DHT22;38243;53.212;6.574;2023-05-21T07:56:46;21.50;75.10
52295;DHT22;38243;53.212;6.574;2023-05-21T07:59:15;21.50;75.20
52295;DHT22;38243;53.212;6.574;2023-05-21T08:01:41;21.50;75.20
52295;DHT22;38243;53.212;6.574;2023-05-21T08:04:08;21.50;75.20
52295;DHT22;38243;53.212;6.574;2023-05-21T08:06:33;21.50;75.20
52295;DHT22;38243;53.212;6.574;2023-05-21T08:09:00;21.50;75.30
52295;DHT22;38243;53.212;6.574;2023-05-21T08:11:29;21.60;75.30
52295;DHT22;38243;53.212;6.574;2023-05-21T08:13:54;21.50;75.20
52295;DHT22;38243;53.212;6.574;2023-05-21T08:16:21;21.60;75.20
52295;DHT22;38243;53.212;6.574;2023-05-21T08:18:50;21.60;74.90
52295;DHT22;38243;53.212;6.574;2023-05-21T08:21:16;21.60;74.70
52295;DHT22;38243;53.212;6.574;2023-05-21T08:23:43;21.60;74.80
52295;DHT22;38243;53.212;6.574;2023-05-21T08:26:09;21.60;75.00
52295;DHT22;38243;53.212;6.574;2023-05-21T08:28:38;21.60;74.80
52295;DHT22;38243;53.212;6.574;2023-05-21T08:31:03;21.60;74.80
52295;DHT22;38243;53.212;6.574;2023-05-21T08:33:29;21.60;75.00
52295;DHT22;38243;53.212;6.574;2023-05-21T08:35:55;21.60;75.10
52295;DHT22;38243;53.212;6.574;2023-05-21T08:38:21;21.60;75.20
52295;DHT22;38243;53.212;6.574;2023-05-21T08:40:48;21.60;75.20
52295;DHT22;38243;53.212;6.574;2023-05-21T08:43:16;21.70;75.10
52295;DHT22;38243;53.212;6.574;2023-05-21T08:45:52;21.70;75.10
52295;DHT22;38243;53.212;6.574;2023-05-21T08:48:19;21.70;75.10
52295;DHT22;38243;53.212;6.574;2023-05-21T08:50:47;21.70;75.00
52295;DHT22;38243;53.212;6.574;2023-05-21T08:53:13;21.70;75.00
52295;DHT22;38243;53.212;6.574;2023-05-21T08:55:40;21.70;75.00
52295;DHT22;38243;53.212;6.574;2023-05-21T08:58:07;21.70;74.90
52295;DHT22;38243;53.212;6.574;2023-05-21T09:00:34;21.70;74.90
52295;DHT22;38243;53.212;6.574;2023-05-21T09:03:00;21.70;74.90
52295;DHT22;38243;53.212;6.574;2023-05-21T09:05:27;21.70;74.80
52295;DHT22;38243;53.212;6.574;2023-05-21T09:08:42;21.70;74.90
52295;DHT22;38243;53.212;6.574;2023-05-21T09:11:00;21.80;74.40
52295;DHT22;38243;53.212;6.574;2023-05-21T09:13:30;21.80;74.30
52295;DHT22;38243;53.212;6.574;2023-05-21T09:15:58;21.90;74.20
52295;DHT22;38243;53.212;6.574;2023-05-21T09:18:23;21.90;74.10
52295;DHT22;38243;53.212;6.574;2023-05-21T09:20:51;21.90;74.10
52295;DHT22;38243;53.212;6.574;2023-05-21T09:23:19;21.90;74.00
52295;DHT22;38243;53.212;6.574;2023-05-21T09:25:48;22.00;74.20
52295;DHT22;38243;53.212;6.574;2023-05-21T09:28:17;22.00;74.00
52295;DHT22;38243;53.212;6.574;2023-05-21T09:30:44;22.00;73.80
52295;DHT22;38243;53.212;6.574;2023-05-21T09:33:10;22.00;73.90
52295;DHT22;38243;53.212;6.574;2023-05-21T09:35:36;22.00;73.80
52295;DHT22;38243;53.212;6.574;2023-05-21T09:38:07;22.00;74.00
52295;DHT22;38243;53.212;6.574;2023-05-21T09:40:34;22.00;74.00
52295;DHT22;38243;53.212;6.574;2023-05-21T09:43:00;22.00;74.20
52295;DHT22;38243;53.212;6.574;2023-05-21T09:45:27;22.00;74.40
52295;DHT22;38243;53.212;6.574;2023-05-21T09:47:54;21.80;74.40
52295;DHT22;38243;53.212;6.574;2023-05-21T09:50:24;22.10;74.90
52295;DHT22;38243;53.212;6.574;2023-05-21T09:52:52;22.10;75.00
52295;DHT22;38243;53.212;6.574;2023-05-21T09:55:27;22.10;74.90
52295;DHT22;38243;53.212;6.574;2023-05-21T09:57:53;22.10;75.00
52295;DHT22;38243;53.212;6.574;2023-05-21T10:02:47;22.10;76.10
52295;DHT22;38243;53.212;6.574;2023-05-21T10:05:16;22.10;75.80
52295;DHT22;38243;53.212;6.574;2023-05-21T10:07:58;22.10;75.70
52295;DHT22;38243;53.212;6.574;2023-05-21T10:10:24;22.10;75.90
52295;DHT22;38243;53.212;6.574;2023-05-21T10:13:03;22.10;75.90
52295;DHT22;38243;53.212;6.574;2023-05-21T10:15:34;22.20;75.90
52295;DHT22;38243;53.212;6.574;2023-05-21T10:18:02;22.20;76.00
52295;DHT22;38243;53.212;6.574;2023-05-21T10:20:29;22.10;76.10
52295;DHT22;38243;53.212;6.574;2023-05-21T10:22:56;22.10;76.40
52295;DHT22;38243;53.212;6.574;2023-05-21T10:25:23;22.10;76.30
52295;DHT22;38243;53.212;6.574;2023-05-21T10:27:50;22.10;76.40
52295;DHT22;38243;53.212;6.574;2023-05-21T10:30:17;22.10;76.60
52295;DHT22;38243;53.212;6.574;2023-05-21T10:32:43;22.10;76.40
52295;DHT22;38243;53.212;6.574;2023-05-21T10:35:10;22.10;76.30
52295;DHT22;38243;53.212;6.574;2023-05-21T10:37:39;22.20;76.40
52295;DHT22;38243;53.212;6.574;2023-05-21T10:40:06;22.20;76.60
52295;DHT22;38243;53.212;6.574;2023-05-21T10:51:37;22.20;76.90
52295;DHT22;38243;53.212;6.574;2023-05-21T10:54:37;22.20;76.80
52295;DHT22;38243;53.212;6.574;2023-05-21T10:59:53;22.30;76.40
52295;DHT22;38243;53.212;6.574;2023-05-21T11:02:19;22.30;76.00
52295;DHT22;38243;53.212;6.574;2023-05-21T11:04:48;22.30;75.80
52295;DHT22;38243;53.212;6.574;2023-05-21T11:07:22;22.30;75.70
52295;DHT22;38243;53.212;6.574;2023-05-21T11:09:51;22.30;75.80
52295;DHT22;38243;53.212;6.574;2023-05-21T11:12:17;22.30;75.90
52295;DHT22;38243;53.212;6.574;2023-05-21T11:15:10;22.30;76.10
52295;DHT22;38243;53.212;6.574;2023-05-21T11:17:40;22.30;76.10
52295;DHT22;38243;53.212;6.574;2023-05-21T11:20:12;22.30;75.90
52295;DHT22;38243;53.212;6.574;2023-05-21T11:22:38;22.40;75.90
52295;DHT22;38243;53.212;6.574;2023-05-21T11:25:04;22.40;76.00
52295;DHT22;38243;53.212;6.574;2023-05-21T11:27:40;22.40;75.90
52295;DHT22;38243;53.212;6.574;2023-05-21T11:30:14;22.40;76.00
52295;DHT22;38243;53.212;6.574;2023-05-21T11:35:37;22.40;75.80
52295;DHT22;38243;53.212;6.574;2023-05-21T11:38:03;22.30;75.70
52295;DHT22;38243;53.212;6.574;2023-05-21T11:40:34;22.40;75.70
52295;DHT22;38243;53.212;6.574;2023-05-21T11:43:00;22.40;75.60
52295;DHT22;38243;53.212;6.574;2023-05-21T11:45:31;22.40;75.50
52295;DHT22;38243;53.212;6.574;2023-05-21T11:47:57;22.40;75.60
52295;DHT22;38243;53.212;6.574;2023-05-21T11:50:24;22.40;75.60
52295;DHT22;38243;53.212;6.574;2023-05-21T11:52:51;22.50;75.70
52295;DHT22;38243;53.212;6.574;2023-05-21T11:55:21;22.40;75.60
52295;DHT22;38243;53.212;6.574;2023-05-21T11:57:47;22.40;75.60
52295;DHT22;38243;53.212;6.574;2023-05-21T12:00:17;22.40;75.70
52295;DHT22;38243;53.212;6.574;2023-05-21T12:02:52;22.40;75.60
52295;DHT22;38243;53.212;6.574;2023-05-21T12:05:18;22.40;75.50
52295;DHT22;38243;53.212;6.574;2023-05-21T12:07:47;22.40;75.50
52295;DHT22;38243;53.212;6.574;2023-05-21T12:10:20;22.40;75.60
52295;DHT22;38243;53.212;6.574;2023-05-21T12:12:46;22.40;75.50
52295;DHT22;38243;53.212;6.574;2023-05-21T12:15:12;22.40;75.40
52295;DHT22;38243;53.212;6.574;2023-05-21T12:17:37;22.40;75.40
52295;DHT22;38243;53.212;6.574;2023-05-21T12:20:04;22.40;75.40
52295;DHT22;38243;53.212;6.574;2023-05-21T12:22:32;22.40;75.50
52295;DHT22;38243;53.212;6.574;2023-05-21T12:24:58;22.40;75.90
52295;DHT22;38243;53.212;6.574;2023-05-21T12:27:25;22.50;76.30
52295;DHT22;38243;53.212;6.574;2023-05-21T12:29:52;22.50;76.50
52295;DHT22;38243;53.212;6.574;2023-05-21T12:32:19;22.50;76.60
52295;DHT22;38243;53.212;6.574;2023-05-21T12:34:47;22.50;76.60
52295;DHT22;38243;53.212;6.574;2023-05-21T12:37:16;22.50;76.80
52295;DHT22;38243;53.212;6.574;2023-05-21T12:39:45;22.50;77.10
52295;DHT22;38243;53.212;6.574;2023-05-21T12:42:12;22.50;77.10
52295;DHT22;38243;53.212;6.574;2023-05-21T12:44:42;22.50;77.00
52295;DHT22;38243;53.212;6.574;2023-05-21T12:47:09;22.50;77.20
52295;DHT22;38243;53.212;6.574;2023-05-21T12:49:38;22.50;77.30
52295;DHT22;38243;53.212;6.574;2023-05-21T12:52:08;22.50;77.40
52295;DHT22;38243;53.212;6.574;2023-05-21T12:54:37;22.50;77.70
52295;DHT22;38243;53.212;6.574;2023-05-21T12:57:13;22.40;77.60
52295;DHT22;38243;53.212;6.574;2023-05-21T12:59:52;22.40;77.70
52295;DHT22;38243;53.212;6.574;2023-05-21T13:02:47;22.50;77.60
52295;DHT22;38243;53.212;6.574;2023-05-21T13:05:16;22.50;77.80
52295;DHT22;38243;53.212;6.574;2023-05-21T13:07:43;22.40;77.80
52295;DHT22;38243;53.212;6.574;2023-05-21T13:10:11;22.40;78.00
52295;DHT22;38243;53.212;6.574;2023-05-21T13:12:38;22.40;78.00
52295;DHT22;38243;53.212;6.574;2023-05-21T13:15:05;22.40;78.00
52295;DHT22;38243;53.212;6.574;2023-05-21T13:17:33;22.40;78.20
52295;DHT22;38243;53.212;6.574;2023-05-21T13:20:07;22.40;78.20
52295;DHT22;38243;53.212;6.574;2023-05-21T13:22:35;22.40;78.20
52295;DHT22;38243;53.212;6.574;2023-05-21T13:25:03;22.40;78.50
52295;DHT22;38243;53.212;6.574;2023-05-21T13:27:29;22.40;78.50
52295;DHT22;38243;53.212;6.574;2023-05-21T13:29:55;22.40;78.70
52295;DHT22;38243;53.212;6.574;2023-05-21T13:32:21;22.40;78.70
52295;DHT22;38243;53.212;6.574;2023-05-21T13:34:47;22.40;78.60
52295;DHT22;38243;53.212;6.574;2023-05-21T13:37:13;22.40;78.70
52295;DHT22;38243;53.212;6.574;2023-05-21T13:39:39;22.40;78.90
52295;DHT22;38243;53.212;6.574;2023-05-21T13:42:05;22.40;79.10
52295;DHT22;38243;53.212;6.574;2023-05-21T13:44:32;22.40;79.10
52295;DHT22;38243;53.212;6.574;2023-05-21T13:47:04;22.40;79.10
52295;DHT22;38243;53.212;6.574;2023-05-21T13:49:31;22.40;79.40
52295;DHT22;38243;53.212;6.574;2023-05-21T13:51:58;22.40;79.20
52295;DHT22;38243;53.212;6.574;2023-05-21T13:54:25;22.40;79.40
52295;DHT22;38243;53.212;6.574;2023-05-21T13:56:54;22.40;79.40
52295;DHT22;38243;53.212;6.574;2023-05-21T13:59:19;22.40;79.10
52295;DHT22;38243;53.212;6.574;2023-05-21T14:01:46;22.50;79.60
52295;DHT22;38243;53.212;6.574;2023-05-21T14:04:12;22.50;79.30
52295;DHT22;38243;53.212;6.574;2023-05-21T14:06:38;22.50;79.50
52295;DHT22;38243;53.212;6.574;2023-05-21T14:09:06;22.50;79.70
52295;DHT22;38243;53.212;6.574;2023-05-21T14:11:32;22.50;79.90
52295;DHT22;38243;53.212;6.574;2023-05-21T14:13:58;22.50;79.80
52295;DHT22;38243;53.212;6.574;2023-05-21T14:16:25;22.50;79.80
52295;DHT22;38243;53.212;6.574;2023-05-21T14:18:55;22.50;80.00
52295;DHT22;38243;53.212;6.574;2023-05-21T14:21:22;22.40;79.80
52295;DHT22;38243;53.212;6.574;2023-05-21T14:23:48;22.50;80.30
52295;DHT22;38243;53.212;6.574;2023-05-21T14:26:15;22.50;80.00
52295;DHT22;38243;53.212;6.574;2023-05-21T14:28:41;22.50;80.00
52295;DHT22;38243;53.212;6.574;2023-05-21T14:31:07;22.40;80.10
52295;DHT22;38243;53.212;6.574;2023-05-21T14:33:35;22.50;80.40
52295;DHT22;38243;53.212;6.574;2023-05-21T14:36:01;22.40;80.10
52295;DHT22;38243;53.212;6.574;2023-05-21T14:38:30;22.50;80.00
52295;DHT22;38243;53.212;6.574;2023-05-21T14:40:56;22.50;80.00
52295;DHT22;38243;53.212;6.574;2023-05-21T14:43:22;22.50;80.80
52295;DHT22;38243;53.212;6.574;2023-05-21T14:45:48;22.50;80.90
52295;DHT22;38243;53.212;6.574;2023-05-21T14:48:16;22.50;80.60
52295;DHT22;38243;53.212;6.574;2023-05-21T14:50:43;22.50;80.70
52295;DHT22;38243;53.212;6.574;2023-05-21T14:53:10;22.50;80.90
52295;DHT22;38243;53.212;6.574;2023-05-21T14:55:36;22.50;81.10
52295;DHT22;38243;53.212;6.574;2023-05-21T14:58:03;22.50;81.30
52295;DHT22;38243;53.212;6.574;2023-05-21T15:00:30;22.50;81.10
52295;DHT22;38243;53.212;6.574;2023-05-21T15:02:56;22.50;81.00
52295;DHT22;38243;53.212;6.574;2023-05-21T15:05:22;22.50;81.00
52295;DHT22;38243;53.212;6.574;2023-05-21T15:07:48;22.50;81.40
52295;DHT22;38243;53.212;6.574;2023-05-21T15:10:14;22.50;81.20
52295;DHT22;38243;53.212;6.574;2023-05-21T15:12:40;22.50;81.70
52295;DHT22;38243;53.212;6.574;2023-05-21T15:15:06;22.50;81.60
52295;DHT22;38243;53.212;6.574;2023-05-21T15:17:33;22.50;81.80
52295;DHT22;38243;53.212;6.574;2023-05-21T15:19:59;22.50;81.50
52295;DHT22;38243;53.212;6.574;2023-05-21T15:22:29;22.50;82.00
52295;DHT22;38243;53.212;6.574;2023-05-21T15:24:55;22.50;81.80
52295;DHT22;38243;53.212;6.574;2023-05-21T15:27:21;22.50;81.80
52295;DHT22;38243;53.212;6.574;2023-05-21T15:29:47;22.50;81.50
52295;DHT22;38243;53.212;6.574;2023-05-21T15:32:13;22.50;81.30
52295;DHT22;38243;53.212;6.574;2023-05-21T15:34:39;22.50;80.70
52295;DHT22;38243;53.212;6.574;2023-05-21T15:37:05;22.50;80.70
52295;DHT22;38243;53.212;6.574;2023-05-21T15:39:30;22.50;80.80
52295;DHT22;38243;53.212;6.574;2023-05-21T15:41:56;22.50;81.60
52295;DHT22;38243;53.212;6.574;2023-05-21T15:44:24;22.60;82.10
52295;DHT22;38243;53.212;6.574;2023-05-21T15:46:50;22.60;81.80
52295;DHT22;38243;53.212;6.574;2023-05-21T15:49:18;22.60;81.30